Main page
METAR-TAF:

METAR-TAF

Airports :

Murcia, Spain

Murcia–San Javier Airport

latitude: 37-47N, longitude: 000-48W, elevation: 5 m

Current weather observation

The report was made 7 hours and 46 minutes ago, at 21:00 UTC
Wind 1 kt from variable directions
Temperature 15°C
Humidity 94%
Pressure 1017 hPa
Visibility: 6000 m

METAR: LELC 262100Z VRB01KT 6000 NSC 15/14 Q1017 NOSIG

Time: 06:46 (04:46 UTC)

Forecast

The report was made 5 hours and 46 minutes ago, at 23:00 UTC
Forecast valid from 27 at 00 UTC to 27 at 24 UTC
Wind 6 kt from the West
Visibility 10 km or more
Few clouds at a height of 1500 ft
Probability 30% :
Temporary
from 27 at 12 UTC to 27 at 18 UTC
Wind 15 kt from the West with gusts up to 25 kt
Visibility: 4000 m
Few clouds at a height of 3000 ft, Cumulonimbus.
rain showers

TAF: LELC 262300Z 2700/2724 26006KT 9999 FEW015 TX23/2713Z TN13/2706Z PROB30 TEMPO 2712/2718 27015G25KT 4000 SHRA FEW030CB

Weather observations and forecasts of more than 4000 airports (METAR and TAF reports).

The available stations are represented by yellow and red dots on the map.

Hover mouse over dot to see the name of the station.

Then click to see weather observations and forecasts.

To change the map : click on the green buttons with a black cross to zoom in, on the green button with a dash to zoom out, or on the green arrows for adjacent maps.


METAR-TAF: